createdAt,value
2023-01-07T00:04:39.585Z,975.47
2023-01-07T00:14:39.691Z,975.38
2023-01-07T00:24:39.990Z,975.40
2023-01-07T00:34:40.060Z,975.34
2023-01-07T00:44:40.315Z,975.28
2023-01-07T00:54:40.436Z,975.11
2023-01-07T01:04:40.619Z,975.04
2023-01-07T01:14:40.690Z,975.12
2023-01-07T01:24:40.909Z,975.08
2023-01-07T01:34:40.981Z,974.98
2023-01-07T01:44:41.322Z,975.03
2023-01-07T01:54:41.378Z,974.93
2023-01-07T02:04:41.702Z,974.84
2023-01-07T02:14:41.782Z,974.79
2023-01-07T02:24:42.100Z,974.72
2023-01-07T02:34:42.031Z,974.59
2023-01-07T02:44:42.370Z,974.49
2023-01-07T02:54:42.436Z,974.31
2023-01-07T03:04:42.763Z,974.20
2023-01-07T03:14:42.822Z,974.16
2023-01-07T03:24:43.142Z,973.97
2023-01-07T03:34:43.188Z,973.86
2023-01-07T03:44:43.533Z,973.82
2023-01-07T03:54:43.602Z,973.68
2023-01-07T04:04:44.009Z,973.50
2023-01-07T04:14:44.015Z,973.50
2023-01-07T04:24:44.132Z,973.25
2023-01-07T04:34:44.296Z,973.24
2023-01-07T04:44:44.677Z,973.11
2023-01-07T04:54:44.635Z,973.30
2023-01-07T05:04:45.031Z,973.10
2023-01-07T05:14:44.995Z,973.13
2023-01-07T05:24:45.317Z,972.85
2023-01-07T05:34:45.364Z,972.73
2023-01-07T05:44:45.668Z,972.71
2023-01-07T05:54:45.731Z,972.67
2023-01-07T06:04:46.129Z,972.55
2023-01-07T06:14:46.124Z,972.48
2023-01-07T06:24:46.391Z,972.52
2023-01-07T06:34:46.346Z,972.44
2023-01-07T06:44:46.674Z,972.37
2023-01-07T06:54:48.506Z,972.24
2023-01-07T07:04:46.967Z,972.18
2023-01-07T07:14:47.048Z,972.10
2023-01-07T07:24:47.260Z,971.96
2023-01-07T07:34:47.312Z,972.00
2023-01-07T07:44:47.661Z,972.01
2023-01-07T07:54:47.712Z,971.83
2023-01-07T08:04:48.062Z,971.86
2023-01-07T08:14:48.059Z,971.83
2023-01-07T08:24:48.274Z,971.75
2023-01-07T08:34:48.318Z,971.70
2023-01-07T08:44:48.651Z,971.58
2023-01-07T08:54:48.699Z,971.52
2023-01-07T09:04:49.240Z,971.66
2023-01-07T09:14:49.097Z,971.43
2023-01-07T09:24:49.471Z,971.40
2023-01-07T09:34:49.421Z,971.43
2023-01-07T09:44:49.765Z,971.47
2023-01-07T09:54:49.842Z,971.43
2023-01-07T10:04:50.277Z,971.48
2023-01-07T10:14:50.253Z,971.38
2023-01-07T10:24:50.837Z,971.10
2023-01-07T10:34:50.582Z,971.12
2023-01-07T10:44:51.180Z,970.89
2023-01-07T10:54:51.367Z,970.72
2023-01-07T11:04:52.209Z,970.24
2023-01-07T11:14:51.259Z,970.20
2023-01-07T11:24:51.957Z,970.00
2023-01-07T11:34:51.589Z,969.90
2023-01-07T11:44:51.895Z,969.53
2023-01-07T11:54:51.949Z,969.31
2023-01-07T12:04:52.233Z,969.05
2023-01-07T12:14:52.272Z,968.99
2023-01-07T12:24:52.582Z,968.91
2023-01-07T12:34:52.625Z,968.77
2023-01-07T12:44:52.853Z,968.52
2023-01-07T12:54:53.020Z,968.29
2023-01-07T13:04:53.550Z,968.23
2023-01-07T13:14:53.336Z,968.10
2023-01-07T13:24:54.543Z,967.86
2023-01-07T13:34:53.729Z,967.82
2023-01-07T13:44:54.037Z,967.79
2023-01-07T13:54:54.063Z,967.70
2023-01-07T14:04:54.488Z,967.72
2023-01-07T14:14:54.466Z,967.67
2023-01-07T14:24:55.079Z,967.60
2023-01-07T14:34:54.778Z,967.71
2023-01-07T14:44:55.097Z,967.89
2023-01-07T14:54:55.132Z,967.81
2023-01-07T15:04:55.435Z,967.86
2023-01-07T15:14:55.713Z,967.74
2023-01-07T15:24:55.837Z,967.83
2023-01-07T15:34:55.912Z,967.80
2023-01-07T15:44:56.146Z,967.74
2023-01-07T15:54:56.519Z,967.71
2023-01-07T16:04:56.705Z,967.74
2023-01-07T16:14:56.769Z,967.69
2023-01-07T16:24:56.891Z,967.73
2023-01-07T16:34:57.000Z,967.58
2023-01-07T16:44:57.336Z,967.67
2023-01-07T16:54:57.282Z,967.67
2023-01-07T17:04:57.683Z,967.78
2023-01-07T17:14:57.631Z,967.83
2023-01-07T17:24:57.907Z,967.70
2023-01-07T17:34:57.847Z,967.47
2023-01-07T17:44:58.372Z,967.35
2023-01-07T17:54:58.321Z,967.34
2023-01-07T18:04:58.526Z,967.25
2023-01-07T18:14:58.894Z,967.14
2023-01-07T18:24:58.872Z,967.20
2023-01-07T18:34:59.143Z,967.34
2023-01-07T18:44:59.225Z,967.33
2023-01-07T18:54:59.398Z,967.15
2023-01-07T19:04:59.622Z,967.24
2023-01-07T19:14:59.936Z,967.13
2023-01-07T19:24:59.926Z,967.16
2023-01-07T19:34:59.979Z,967.07
2023-01-07T19:45:00.325Z,966.79
2023-01-07T19:55:00.375Z,966.88
2023-01-07T20:05:00.865Z,966.84
2023-01-07T20:15:03.443Z,966.86
2023-01-07T20:25:00.972Z,966.73
2023-01-07T20:35:01.019Z,966.70
2023-01-07T20:45:01.345Z,966.59
2023-01-07T20:55:01.407Z,966.44
2023-01-07T21:05:01.631Z,966.39
2023-01-07T21:15:01.800Z,966.32
2023-01-07T21:25:02.142Z,966.25
2023-01-07T21:35:02.207Z,966.21
2023-01-07T21:45:02.527Z,966.37
2023-01-07T21:55:02.844Z,966.23
2023-01-07T22:05:02.829Z,966.19
2023-01-07T22:15:03.091Z,966.25
2023-01-07T22:25:03.483Z,966.29
2023-01-07T22:35:03.343Z,966.19
2023-01-07T22:45:03.737Z,966.02
2023-01-07T22:55:03.435Z,965.92
2023-01-07T23:05:03.981Z,965.80
2023-01-07T23:15:03.815Z,965.77
2023-01-07T23:25:04.068Z,965.72
2023-01-07T23:35:04.124Z,965.58
2023-01-07T23:45:04.448Z,965.42
2023-01-07T23:55:04.647Z,965.45
